sensor_id;sensor_type;location;lat;lon;timestamp;temperature;humidity
15690;DHT22;7945;48.816;11.506;2023-05-25T00:00:07;13.30;90.90
15690;DHT22;7945;48.816;11.506;2023-05-25T00:02:34;13.30;91.10
15690;DHT22;7945;48.816;11.506;2023-05-25T00:05:01;13.30;91.10
15690;DHT22;7945;48.816;11.506;2023-05-25T00:07:29;13.20;91.20
15690;DHT22;7945;48.816;11.506;2023-05-25T00:09:56;13.20;91.30
15690;DHT22;7945;48.816;11.506;2023-05-25T00:12:23;13.10;91.40
15690;DHT22;7945;48.816;11.506;2023-05-25T00:14:50;13.00;91.40
15690;DHT22;7945;48.816;11.506;2023-05-25T00:17:16;13.00;91.50
15690;DHT22;7945;48.816;11.506;2023-05-25T00:19:44;13.10;91.50
15690;DHT22;7945;48.816;11.506;2023-05-25T00:22:11;13.00;91.50
15690;DHT22;7945;48.816;11.506;2023-05-25T00:24:39;13.00;91.70
15690;DHT22;7945;48.816;11.506;2023-05-25T00:27:06;13.00;91.70
15690;DHT22;7945;48.816;11.506;2023-05-25T00:29:33;13.00;91.70
15690;DHT22;7945;48.816;11.506;2023-05-25T00:32:00;13.00;91.80
15690;DHT22;7945;48.816;11.506;2023-05-25T00:34:27;13.00;91.80
15690;DHT22;7945;48.816;11.506;2023-05-25T00:36:54;13.00;91.90
15690;DHT22;7945;48.816;11.506;2023-05-25T00:39:20;13.00;91.90
15690;DHT22;7945;48.816;11.506;2023-05-25T00:41:48;13.00;92.00
15690;DHT22;7945;48.816;11.506;2023-05-25T00:44:15;13.00;92.00
15690;DHT22;7945;48.816;11.506;2023-05-25T00:46:47;13.10;92.00
15690;DHT22;7945;48.816;11.506;2023-05-25T00:49:14;13.00;92.30
15690;DHT22;7945;48.816;11.506;2023-05-25T00:51:41;13.10;92.30
15690;DHT22;7945;48.816;11.506;2023-05-25T00:54:11;13.10;92.10
15690;DHT22;7945;48.816;11.506;2023-05-25T00:56:39;13.10;92.00
15690;DHT22;7945;48.816;11.506;2023-05-25T00:59:14;13.10;92.10
15690;DHT22;7945;48.816;11.506;2023-05-25T01:01:43;13.10;92.20
15690;DHT22;7945;48.816;11.506;2023-05-25T01:04:13;13.10;92.30
15690;DHT22;7945;48.816;11.506;2023-05-25T01:06:43;13.10;92.30
15690;DHT22;7945;48.816;11.506;2023-05-25T01:09:15;13.10;92.30
15690;DHT22;7945;48.816;11.506;2023-05-25T01:11:45;13.10;92.30
15690;DHT22;7945;48.816;11.506;2023-05-25T01:14:17;13.10;92.40
15690;DHT22;7945;48.816;11.506;2023-05-25T01:16:44;13.00;92.50
15690;DHT22;7945;48.816;11.506;2023-05-25T01:19:12;13.10;92.50
15690;DHT22;7945;48.816;11.506;2023-05-25T01:21:43;13.10;92.50
15690;DHT22;7945;48.816;11.506;2023-05-25T01:24:16;13.20;92.50
15690;DHT22;7945;48.816;11.506;2023-05-25T01:27:00;13.20;92.50
15690;DHT22;7945;48.816;11.506;2023-05-25T01:29:32;13.20;92.60
15690;DHT22;7945;48.816;11.506;2023-05-25T01:32:02;13.20;92.60
15690;DHT22;7945;48.816;11.506;2023-05-25T01:34:30;13.20;92.70
15690;DHT22;7945;48.816;11.506;2023-05-25T01:36:58;13.20;92.70
15690;DHT22;7945;48.816;11.506;2023-05-25T01:39:25;13.10;92.80
15690;DHT22;7945;48.816;11.506;2023-05-25T01:41:51;13.10;92.90
15690;DHT22;7945;48.816;11.506;2023-05-25T01:44:18;13.20;92.90
15690;DHT22;7945;48.816;11.506;2023-05-25T01:46:49;13.20;92.90
15690;DHT22;7945;48.816;11.506;2023-05-25T01:49:22;13.20;92.80
15690;DHT22;7945;48.816;11.506;2023-05-25T01:51:58;13.20;92.80
15690;DHT22;7945;48.816;11.506;2023-05-25T01:54:31;13.30;92.80
15690;DHT22;7945;48.816;11.506;2023-05-25T01:57:00;13.30;92.80
15690;DHT22;7945;48.816;11.506;2023-05-25T01:59:30;13.30;92.80
15690;DHT22;7945;48.816;11.506;2023-05-25T02:01:58;13.30;92.70
15690;DHT22;7945;48.816;11.506;2023-05-25T02:04:26;13.40;92.80
15690;DHT22;7945;48.816;11.506;2023-05-25T02:06:53;13.40;92.70
15690;DHT22;7945;48.816;11.506;2023-05-25T02:09:22;13.40;92.80
15690;DHT22;7945;48.816;11.506;2023-05-25T02:11:48;13.40;92.80
15690;DHT22;7945;48.816;11.506;2023-05-25T02:14:15;13.40;92.70
15690;DHT22;7945;48.816;11.506;2023-05-25T02:16:42;13.40;93.10
15690;DHT22;7945;48.816;11.506;2023-05-25T02:19:10;13.40;92.80
15690;DHT22;7945;48.816;11.506;2023-05-25T02:21:39;13.50;92.70
15690;DHT22;7945;48.816;11.506;2023-05-25T02:24:06;13.50;92.80
15690;DHT22;7945;48.816;11.506;2023-05-25T02:26:35;13.50;92.70
15690;DHT22;7945;48.816;11.506;2023-05-25T02:29:02;13.50;92.80
15690;DHT22;7945;48.816;11.506;2023-05-25T02:31:29;13.50;92.70
15690;DHT22;7945;48.816;11.506;2023-05-25T02:33:56;13.50;92.80
15690;DHT22;7945;48.816;11.506;2023-05-25T02:36:22;13.60;92.70
15690;DHT22;7945;48.816;11.506;2023-05-25T02:38:50;13.60;92.80
15690;DHT22;7945;48.816;11.506;2023-05-25T02:41:17;13.60;92.80
15690;DHT22;7945;48.816;11.506;2023-05-25T02:43:46;13.50;92.80
15690;DHT22;7945;48.816;11.506;2023-05-25T02:46:13;13.50;92.80
15690;DHT22;7945;48.816;11.506;2023-05-25T02:48:40;13.50;92.90
15690;DHT22;7945;48.816;11.506;2023-05-25T02:51:07;13.40;92.90
15690;DHT22;7945;48.816;11.506;2023-05-25T02:53:34;13.40;93.00
15690;DHT22;7945;48.816;11.506;2023-05-25T02:56:01;13.40;93.00
15690;DHT22;7945;48.816;11.506;2023-05-25T02:58:29;13.40;93.00
15690;DHT22;7945;48.816;11.506;2023-05-25T03:00:57;13.40;93.00
15690;DHT22;7945;48.816;11.506;2023-05-25T03:03:25;13.40;93.00
15690;DHT22;7945;48.816;11.506;2023-05-25T03:05:51;13.40;93.00
15690;DHT22;7945;48.816;11.506;2023-05-25T03:08:18;13.40;93.10
15690;DHT22;7945;48.816;11.506;2023-05-25T03:10:45;13.40;93.10
15690;DHT22;7945;48.816;11.506;2023-05-25T03:13:12;13.40;93.20
15690;DHT22;7945;48.816;11.506;2023-05-25T03:15:38;13.40;93.20
15690;DHT22;7945;48.816;11.506;2023-05-25T03:18:06;13.40;93.30
15690;DHT22;7945;48.816;11.506;2023-05-25T03:20:33;13.40;93.20
15690;DHT22;7945;48.816;11.506;2023-05-25T03:23:00;13.50;93.30
15690;DHT22;7945;48.816;11.506;2023-05-25T03:25:27;13.40;93.30
15690;DHT22;7945;48.816;11.506;2023-05-25T03:27:53;13.40;93.30
15690;DHT22;7945;48.816;11.506;2023-05-25T03:30:21;13.40;93.30
15690;DHT22;7945;48.816;11.506;2023-05-25T03:32:48;13.50;93.70
15690;DHT22;7945;48.816;11.506;2023-05-25T03:35:16;13.50;93.40
15690;DHT22;7945;48.816;11.506;2023-05-25T03:37:43;13.50;93.40
15690;DHT22;7945;48.816;11.506;2023-05-25T03:40:10;13.60;93.40
15690;DHT22;7945;48.816;11.506;2023-05-25T03:42:37;13.60;93.40
15690;DHT22;7945;48.816;11.506;2023-05-25T03:45:04;13.60;93.40
15690;DHT22;7945;48.816;11.506;2023-05-25T03:47:33;13.60;93.40
15690;DHT22;7945;48.816;11.506;2023-05-25T03:50:00;13.60;93.50
15690;DHT22;7945;48.816;11.506;2023-05-25T03:52:28;13.60;93.50
15690;DHT22;7945;48.816;11.506;2023-05-25T03:54:55;13.70;93.50
15690;DHT22;7945;48.816;11.506;2023-05-25T03:57:21;13.70;93.40
15690;DHT22;7945;48.816;11.506;2023-05-25T03:59:48;13.70;93.50
15690;DHT22;7945;48.816;11.506;2023-05-25T04:02:15;13.70;93.50
15690;DHT22;7945;48.816;11.506;2023-05-25T04:04:41;13.80;93.50
15690;DHT22;7945;48.816;11.506;2023-05-25T04:07:09;13.80;93.50
15690;DHT22;7945;48.816;11.506;2023-05-25T04:09:37;13.80;93.50
15690;DHT22;7945;48.816;11.506;2023-05-25T04:12:04;13.80;93.50
15690;DHT22;7945;48.816;11.506;2023-05-25T04:14:31;13.80;93.50
15690;DHT22;7945;48.816;11.506;2023-05-25T04:16:58;13.80;93.50
15690;DHT22;7945;48.816;11.506;2023-05-25T04:19:25;13.80;93.50
15690;DHT22;7945;48.816;11.506;2023-05-25T04:21:51;13.80;93.50
15690;DHT22;7945;48.816;11.506;2023-05-25T04:24:18;13.80;93.50
15690;DHT22;7945;48.816;11.506;2023-05-25T04:26:46;13.80;93.50
15690;DHT22;7945;48.816;11.506;2023-05-25T04:29:14;13.80;93.50
15690;DHT22;7945;48.816;11.506;2023-05-25T04:31:40;13.80;93.50
15690;DHT22;7945;48.816;11.506;2023-05-25T04:34:10;13.90;93.60
15690;DHT22;7945;48.816;11.506;2023-05-25T04:36:38;13.90;93.60
15690;DHT22;7945;48.816;11.506;2023-05-25T04:39:07;13.90;93.80
15690;DHT22;7945;48.816;11.506;2023-05-25T04:41:34;13.90;93.50
15690;DHT22;7945;48.816;11.506;2023-05-25T04:44:03;13.90;93.50
15690;DHT22;7945;48.816;11.506;2023-05-25T04:46:30;13.90;93.40
15690;DHT22;7945;48.816;11.506;2023-05-25T04:48:57;14.00;93.50
15690;DHT22;7945;48.816;11.506;2023-05-25T04:51:23;13.90;93.30
15690;DHT22;7945;48.816;11.506;2023-05-25T04:53:50;13.90;93.40
15690;DHT22;7945;48.816;11.506;2023-05-25T04:56:17;13.90;93.40
15690;DHT22;7945;48.816;11.506;2023-05-25T04:58:46;14.00;93.40
15690;DHT22;7945;48.816;11.506;2023-05-25T05:01:14;14.00;93.40
15690;DHT22;7945;48.816;11.506;2023-05-25T05:03:41;14.10;93.30
15690;DHT22;7945;48.816;11.506;2023-05-25T05:06:08;14.20;93.20
15690;DHT22;7945;48.816;11.506;2023-05-25T05:08:35;14.40;93.10
15690;DHT22;7945;48.816;11.506;2023-05-25T05:11:01;14.70;92.90
15690;DHT22;7945;48.816;11.506;2023-05-25T05:13:29;15.00;92.50
15690;DHT22;7945;48.816;11.506;2023-05-25T05:15:56;15.80;91.80
15690;DHT22;7945;48.816;11.506;2023-05-25T05:18:24;17.00;90.50
15690;DHT22;7945;48.816;11.506;2023-05-25T05:20:51;18.10;88.90
15690;DHT22;7945;48.816;11.506;2023-05-25T05:23:18;18.70;86.40
15690;DHT22;7945;48.816;11.506;2023-05-25T05:25:44;18.50;86.20
15690;DHT22;7945;48.816;11.506;2023-05-25T05:28:11;17.90;87.00
15690;DHT22;7945;48.816;11.506;2023-05-25T05:30:38;17.30;88.10
15690;DHT22;7945;48.816;11.506;2023-05-25T05:33:05;16.90;89.20
15690;DHT22;7945;48.816;11.506;2023-05-25T05:35:33;16.50;90.10
15690;DHT22;7945;48.816;11.506;2023-05-25T05:38:00;16.20;90.30
15690;DHT22;7945;48.816;11.506;2023-05-25T05:40:26;15.90;90.50
15690;DHT22;7945;48.816;11.506;2023-05-25T05:42:53;15.70;90.80
15690;DHT22;7945;48.816;11.506;2023-05-25T05:45:20;15.50;91.00
15690;DHT22;7945;48.816;11.506;2023-05-25T05:47:46;15.30;91.30
15690;DHT22;7945;48.816;11.506;2023-05-25T05:50:13;15.30;91.50
15690;DHT22;7945;48.816;11.506;2023-05-25T05:52:41;15.30;91.80
15690;DHT22;7945;48.816;11.506;2023-05-25T05:55:08;15.30;91.70
15690;DHT22;7945;48.816;11.506;2023-05-25T05:57:35;15.30;91.80
15690;DHT22;7945;48.816;11.506;2023-05-25T06:00:02;15.40;91.90
15690;DHT22;7945;48.816;11.506;2023-05-25T06:02:31;15.40;91.90
15690;DHT22;7945;48.816;11.506;2023-05-25T06:04:58;15.30;92.20
15690;DHT22;7945;48.816;11.506;2023-05-25T06:07:25;15.20;92.00
15690;DHT22;7945;48.816;11.506;2023-05-25T06:09:54;15.30;92.10
15690;DHT22;7945;48.816;11.506;2023-05-25T06:15:22;15.40;92.00
15690;DHT22;7945;48.816;11.506;2023-05-25T06:17:49;15.60;91.90
15690;DHT22;7945;48.816;11.506;2023-05-25T06:20:16;15.80;91.80
15690;DHT22;7945;48.816;11.506;2023-05-25T06:22:42;16.00;91.50
15690;DHT22;7945;48.816;11.506;2023-05-25T06:25:10;16.40;91.20
15690;DHT22;7945;48.816;11.506;2023-05-25T06:27:38;16.70;90.90
15690;DHT22;7945;48.816;11.506;2023-05-25T06:30:06;16.90;90.60
15690;DHT22;7945;48.816;11.506;2023-05-25T06:32:34;17.00;90.30
15690;DHT22;7945;48.816;11.506;2023-05-25T06:35:01;17.00;90.30
15690;DHT22;7945;48.816;11.506;2023-05-25T06:37:29;17.10;90.20
15690;DHT22;7945;48.816;11.506;2023-05-25T06:39:59;17.20;90.20
15690;DHT22;7945;48.816;11.506;2023-05-25T06:42:26;17.40;90.00
15690;DHT22;7945;48.816;11.506;2023-05-25T06:44:52;17.50;89.80
15690;DHT22;7945;48.816;11.506;2023-05-25T06:47:19;17.70;89.60
15690;DHT22;7945;48.816;11.506;2023-05-25T06:49:48;17.80;89.00
15690;DHT22;7945;48.816;11.506;2023-05-25T06:52:14;17.90;88.90
15690;DHT22;7945;48.816;11.506;2023-05-25T06:54:41;17.90;88.60
15690;DHT22;7945;48.816;11.506;2023-05-25T06:57:08;17.80;88.40
15690;DHT22;7945;48.816;11.506;2023-05-25T06:59:34;17.90;88.60
15690;DHT22;7945;48.816;11.506;2023-05-25T07:02:01;17.80;88.40
15690;DHT22;7945;48.816;11.506;2023-05-25T07:04:28;17.80;88.10
15690;DHT22;7945;48.816;11.506;2023-05-25T07:06:56;17.90;88.30
15690;DHT22;7945;48.816;11.506;2023-05-25T07:09:23;17.90;88.20
15690;DHT22;7945;48.816;11.506;2023-05-25T07:11:49;17.90;88.30
15690;DHT22;7945;48.816;11.506;2023-05-25T07:14:16;17.90;88.50
15690;DHT22;7945;48.816;11.506;2023-05-25T07:16:43;18.00;88.30
15690;DHT22;7945;48.816;11.506;2023-05-25T07:19:10;18.00;88.50
15690;DHT22;7945;48.816;11.506;2023-05-25T07:21:37;18.00;88.50
15690;DHT22;7945;48.816;11.506;2023-05-25T07:24:05;18.00;88.20
15690;DHT22;7945;48.816;11.506;2023-05-25T07:26:33;18.00;88.40
15690;DHT22;7945;48.816;11.506;2023-05-25T07:29:01;17.90;88.30
15690;DHT22;7945;48.816;11.506;2023-05-25T07:31:27;17.70;88.60
15690;DHT22;7945;48.816;11.506;2023-05-25T07:33:54;17.60;88.40
15690;DHT22;7945;48.816;11.506;2023-05-25T07:36:21;17.60;88.70
15690;DHT22;7945;48.816;11.506;2023-05-25T07:38:49;17.80;88.90
15690;DHT22;7945;48.816;11.506;2023-05-25T07:41:17;17.90;88.50
15690;DHT22;7945;48.816;11.506;2023-05-25T07:43:43;17.90;88.40
15690;DHT22;7945;48.816;11.506;2023-05-25T07:46:10;17.90;88.50
15690;DHT22;7945;48.816;11.506;2023-05-25T07:48:37;17.80;88.90
15690;DHT22;7945;48.816;11.506;2023-05-25T07:51:04;17.70;88.70
15690;DHT22;7945;48.816;11.506;2023-05-25T07:53:31;17.70;89.40
15690;DHT22;7945;48.816;11.506;2023-05-25T07:55:58;17.60;89.60
15690;DHT22;7945;48.816;11.506;2023-05-25T07:58:26;17.70;89.70
15690;DHT22;7945;48.816;11.506;2023-05-25T08:00:53;17.80;89.60
15690;DHT22;7945;48.816;11.506;2023-05-25T08:03:19;17.90;89.80
15690;DHT22;7945;48.816;11.506;2023-05-25T08:05:47;17.80;89.70
15690;DHT22;7945;48.816;11.506;2023-05-25T08:08:13;17.80;90.10
15690;DHT22;7945;48.816;11.506;2023-05-25T08:10:40;17.80;89.90
15690;DHT22;7945;48.816;11.506;2023-05-25T08:13:07;17.80;90.00
15690;DHT22;7945;48.816;11.506;2023-05-25T08:15:35;17.80;90.00
15690;DHT22;7945;48.816;11.506;2023-05-25T08:18:02;17.80;90.10
15690;DHT22;7945;48.816;11.506;2023-05-25T08:20:29;17.80;90.10
15690;DHT22;7945;48.816;11.506;2023-05-25T08:22:56;17.90;90.10
15690;DHT22;7945;48.816;11.506;2023-05-25T08:25:23;17.80;90.10
15690;DHT22;7945;48.816;11.506;2023-05-25T08:27:50;17.90;90.20
15690;DHT22;7945;48.816;11.506;2023-05-25T08:30:17;18.00;90.00
15690;DHT22;7945;48.816;11.506;2023-05-25T08:32:45;18.00;89.70
15690;DHT22;7945;48.816;11.506;2023-05-25T08:35:12;18.00;89.50
15690;DHT22;7945;48.816;11.506;2023-05-25T08:37:39;18.10;89.80
15690;DHT22;7945;48.816;11.506;2023-05-25T08:40:13;18.00;89.50
15690;DHT22;7945;48.816;11.506;2023-05-25T08:42:41;18.10;89.70
15690;DHT22;7945;48.816;11.506;2023-05-25T08:45:08;18.10;89.90
15690;DHT22;7945;48.816;11.506;2023-05-25T08:47:40;18.10;90.10
15690;DHT22;7945;48.816;11.506;2023-05-25T08:50:10;18.10;89.60
15690;DHT22;7945;48.816;11.506;2023-05-25T08:52:38;18.10;90.10
15690;DHT22;7945;48.816;11.506;2023-05-25T08:55:07;18.10;90.30
15690;DHT22;7945;48.816;11.506;2023-05-25T08:57:43;18.30;90.30
15690;DHT22;7945;48.816;11.506;2023-05-25T09:00:14;18.30;90.40
15690;DHT22;7945;48.816;11.506;2023-05-25T09:02:44;18.40;90.00
15690;DHT22;7945;48.816;11.506;2023-05-25T09:05:14;18.50;89.70
15690;DHT22;7945;48.816;11.506;2023-05-25T09:07:42;18.50;89.40
15690;DHT22;7945;48.816;11.506;2023-05-25T09:10:10;18.50;89.30
15690;DHT22;7945;48.816;11.506;2023-05-25T09:12:37;18.60;89.60
15690;DHT22;7945;48.816;11.506;2023-05-25T09:15:05;18.70;90.00
15690;DHT22;7945;48.816;11.506;2023-05-25T09:17:32;18.70;89.40
15690;DHT22;7945;48.816;11.506;2023-05-25T09:19:59;18.70;89.40
15690;DHT22;7945;48.816;11.506;2023-05-25T09:22:27;18.70;89.50
15690;DHT22;7945;48.816;11.506;2023-05-25T09:24:54;18.80;89.00
15690;DHT22;7945;48.816;11.506;2023-05-25T09:27:22;19.00;88.60
15690;DHT22;7945;48.816;11.506;2023-05-25T09:29:49;19.00;88.50
15690;DHT22;7945;48.816;11.506;2023-05-25T09:32:16;19.20;88.10
15690;DHT22;7945;48.816;11.506;2023-05-25T09:34:44;19.30;87.70
15690;DHT22;7945;48.816;11.506;2023-05-25T09:37:12;19.50;87.10
15690;DHT22;7945;48.816;11.506;2023-05-25T09:39:40;19.60;86.40
15690;DHT22;7945;48.816;11.506;2023-05-25T09:42:07;19.50;86.20
15690;DHT22;7945;48.816;11.506;2023-05-25T09:44:34;19.50;86.00
15690;DHT22;7945;48.816;11.506;2023-05-25T09:47:01;19.60;86.10
15690;DHT22;7945;48.816;11.506;2023-05-25T09:49:28;19.60;85.90
15690;DHT22;7945;48.816;11.506;2023-05-25T09:51:55;19.70;86.50
15690;DHT22;7945;48.816;11.506;2023-05-25T09:54:22;19.70;85.90
15690;DHT22;7945;48.816;11.506;2023-05-25T09:56:50;19.80;85.40
15690;DHT22;7945;48.816;11.506;2023-05-25T09:59:17;19.90;85.60
15690;DHT22;7945;48.816;11.506;2023-05-25T10:01:44;20.00;85.30
15690;DHT22;7945;48.816;11.506;2023-05-25T10:04:16;20.10;84.40
15690;DHT22;7945;48.816;11.506;2023-05-25T10:06:43;20.20;84.10
15690;DHT22;7945;48.816;11.506;2023-05-25T10:09:14;20.20;83.30
15690;DHT22;7945;48.816;11.506;2023-05-25T10:11:43;20.20;83.40
15690;DHT22;7945;48.816;11.506;2023-05-25T10:14:13;20.30;83.80
15690;DHT22;7945;48.816;11.506;2023-05-25T10:16:47;20.40;83.40
15690;DHT22;7945;48.816;11.506;2023-05-25T10:19:19;20.60;82.30
15690;DHT22;7945;48.816;11.506;2023-05-25T10:21:50;20.60;81.80
15690;DHT22;7945;48.816;11.506;2023-05-25T10:24:25;20.70;82.00
15690;DHT22;7945;48.816;11.506;2023-05-25T10:26:53;20.60;80.90
15690;DHT22;7945;48.816;11.506;2023-05-25T10:29:27;20.70;80.80
15690;DHT22;7945;48.816;11.506;2023-05-25T10:31:56;20.90;81.10
15690;DHT22;7945;48.816;11.506;2023-05-25T10:34:24;21.00;81.30
15690;DHT22;7945;48.816;11.506;2023-05-25T10:36:52;21.20;81.30
15690;DHT22;7945;48.816;11.506;2023-05-25T10:39:20;21.30;80.60
15690;DHT22;7945;48.816;11.506;2023-05-25T10:41:50;21.20;80.60
15690;DHT22;7945;48.816;11.506;2023-05-25T10:44:18;21.10;80.50
15690;DHT22;7945;48.816;11.506;2023-05-25T10:46:47;21.20;81.10
15690;DHT22;7945;48.816;11.506;2023-05-25T10:49:25;21.30;79.90
15690;DHT22;7945;48.816;11.506;2023-05-25T10:51:57;21.50;80.00
15690;DHT22;7945;48.816;11.506;2023-05-25T10:54:28;21.60;79.80
15690;DHT22;7945;48.816;11.506;2023-05-25T10:57:08;21.60;79.10
15690;DHT22;7945;48.816;11.506;2023-05-25T10:59:35;21.60;78.40
15690;DHT22;7945;48.816;11.506;2023-05-25T11:02:07;21.50;78.60
15690;DHT22;7945;48.816;11.506;2023-05-25T11:04:33;21.60;78.20
15690;DHT22;7945;48.816;11.506;2023-05-25T11:07:07;21.60;78.80
15690;DHT22;7945;48.816;11.506;2023-05-25T11:09:40;21.70;78.90
15690;DHT22;7945;48.816;11.506;2023-05-25T11:12:17;21.80;78.10
15690;DHT22;7945;48.816;11.506;2023-05-25T11:15:07;22.00;77.70
15690;DHT22;7945;48.816;11.506;2023-05-25T11:17:43;22.00;77.00
15690;DHT22;7945;48.816;11.506;2023-05-25T11:20:20;21.80;77.30
15690;DHT22;7945;48.816;11.506;2023-05-25T11:22:49;22.00;77.10
15690;DHT22;7945;48.816;11.506;2023-05-25T11:25:40;22.00;77.70
15690;DHT22;7945;48.816;11.506;2023-05-25T11:28:08;22.10;77.20
15690;DHT22;7945;48.816;11.506;2023-05-25T11:30:38;22.00;77.20
15690;DHT22;7945;48.816;11.506;2023-05-25T11:33:06;22.00;77.60
15690;DHT22;7945;48.816;11.506;2023-05-25T11:35:33;22.10;76.70
15690;DHT22;7945;48.816;11.506;2023-05-25T11:38:04;22.20;76.90
15690;DHT22;7945;48.816;11.506;2023-05-25T11:40:31;22.30;77.30
15690;DHT22;7945;48.816;11.506;2023-05-25T11:42:58;22.20;76.90
15690;DHT22;7945;48.816;11.506;2023-05-25T11:45:27;22.20;76.80
15690;DHT22;7945;48.816;11.506;2023-05-25T11:47:54;22.20;77.10
15690;DHT22;7945;48.816;11.506;2023-05-25T11:50:23;22.20;76.70
15690;DHT22;7945;48.816;11.506;2023-05-25T11:52:50;22.30;75.80
15690;DHT22;7945;48.816;11.506;2023-05-25T11:55:18;22.40;76.20
15690;DHT22;7945;48.816;11.506;2023-05-25T11:57:46;22.40;76.10
15690;DHT22;7945;48.816;11.506;2023-05-25T12:00:23;22.40;75.60
15690;DHT22;7945;48.816;11.506;2023-05-25T12:02:50;22.40;75.00
15690;DHT22;7945;48.816;11.506;2023-05-25T12:05:17;22.40;75.80
15690;DHT22;7945;48.816;11.506;2023-05-25T12:07:45;22.40;75.40
15690;DHT22;7945;48.816;11.506;2023-05-25T12:10:13;22.30;76.30
15690;DHT22;7945;48.816;11.506;2023-05-25T12:12:41;22.40;75.80
15690;DHT22;7945;48.816;11.506;2023-05-25T12:15:09;22.50;75.80
15690;DHT22;7945;48.816;11.506;2023-05-25T12:17:39;22.50;75.40
15690;DHT22;7945;48.816;11.506;2023-05-25T12:20:07;22.60;75.50
15690;DHT22;7945;48.816;11.506;2023-05-25T12:22:35;22.70;74.80
15690;DHT22;7945;48.816;11.506;2023-05-25T12:25:05;22.60;74.30
15690;DHT22;7945;48.816;11.506;2023-05-25T12:27:33;22.60;74.30
15690;DHT22;7945;48.816;11.506;2023-05-25T12:30:00;22.70;75.00
15690;DHT22;7945;48.816;11.506;2023-05-25T12:32:27;22.80;74.00
15690;DHT22;7945;48.816;11.506;2023-05-25T12:35:01;22.90;73.50
15690;DHT22;7945;48.816;11.506;2023-05-25T12:37:28;22.90;75.30
15690;DHT22;7945;48.816;11.506;2023-05-25T12:39:55;22.90;74.50
15690;DHT22;7945;48.816;11.506;2023-05-25T12:42:23;23.00;74.70
15690;DHT22;7945;48.816;11.506;2023-05-25T12:44:54;23.00;73.70
15690;DHT22;7945;48.816;11.506;2023-05-25T12:47:23;22.90;73.80
15690;DHT22;7945;48.816;11.506;2023-05-25T12:49:53;22.90;72.80
15690;DHT22;7945;48.816;11.506;2023-05-25T12:52:36;23.00;73.30
15690;DHT22;7945;48.816;11.506;2023-05-25T12:55:22;23.20;73.30
15690;DHT22;7945;48.816;11.506;2023-05-25T12:57:52;23.20;73.40
15690;DHT22;7945;48.816;11.506;2023-05-25T13:00:20;23.10;73.00
15690;DHT22;7945;48.816;11.506;2023-05-25T13:02:48;23.10;73.00
15690;DHT22;7945;48.816;11.506;2023-05-25T13:05:19;23.00;72.70
15690;DHT22;7945;48.816;11.506;2023-05-25T13:07:46;23.10;72.30
15690;DHT22;7945;48.816;11.506;2023-05-25T13:10:13;23.20;73.10
15690;DHT22;7945;48.816;11.506;2023-05-25T13:12:42;23.30;72.80
15690;DHT22;7945;48.816;11.506;2023-05-25T13:15:11;23.40;73.20
15690;DHT22;7945;48.816;11.506;2023-05-25T13:17:40;23.40;72.70
15690;DHT22;7945;48.816;11.506;2023-05-25T13:20:08;23.40;72.30
15690;DHT22;7945;48.816;11.506;2023-05-25T13:22:37;23.50;72.50
15690;DHT22;7945;48.816;11.506;2023-05-25T13:25:04;23.60;72.30
15690;DHT22;7945;48.816;11.506;2023-05-25T13:27:31;23.60;72.20
15690;DHT22;7945;48.816;11.506;2023-05-25T13:29:57;23.50;72.20
15690;DHT22;7945;48.816;11.506;2023-05-25T13:32:26;23.50;72.50
15690;DHT22;7945;48.816;11.506;2023-05-25T13:34:55;23.40;71.30
15690;DHT22;7945;48.816;11.506;2023-05-25T13:37:24;23.50;71.40
15690;DHT22;7945;48.816;11.506;2023-05-25T13:39:52;23.60;72.20
15690;DHT22;7945;48.816;11.506;2023-05-25T13:42:19;23.60;71.60
15690;DHT22;7945;48.816;11.506;2023-05-25T13:44:46;23.70;71.60
15690;DHT22;7945;48.816;11.506;2023-05-25T13:47:13;23.70;71.70
15690;DHT22;7945;48.816;11.506;2023-05-25T13:49:41;23.60;71.20
15690;DHT22;7945;48.816;11.506;2023-05-25T13:52:08;23.60;71.10
15690;DHT22;7945;48.816;11.506;2023-05-25T13:54:35;23.60;71.30
15690;DHT22;7945;48.816;11.506;2023-05-25T13:57:02;23.60;71.20
15690;DHT22;7945;48.816;11.506;2023-05-25T13:59:31;23.60;71.30
15690;DHT22;7945;48.816;11.506;2023-05-25T14:01:58;23.70;70.60
15690;DHT22;7945;48.816;11.506;2023-05-25T14:04:25;23.70;69.60
15690;DHT22;7945;48.816;11.506;2023-05-25T14:06:53;23.80;69.30
15690;DHT22;7945;48.816;11.506;2023-05-25T14:09:21;23.90;69.50
15690;DHT22;7945;48.816;11.506;2023-05-25T14:11:48;23.90;68.90
15690;DHT22;7945;48.816;11.506;2023-05-25T14:14:16;24.10;68.30
15690;DHT22;7945;48.816;11.506;2023-05-25T14:16:43;24.20;67.90
15690;DHT22;7945;48.816;11.506;2023-05-25T14:19:11;24.40;67.80
15690;DHT22;7945;48.816;11.506;2023-05-25T14:21:39;24.30;67.70
15690;DHT22;7945;48.816;11.506;2023-05-25T14:24:07;24.40;67.30
15690;DHT22;7945;48.816;11.506;2023-05-25T14:26:35;24.50;67.30
15690;DHT22;7945;48.816;11.506;2023-05-25T14:29:03;24.50;66.70
15690;DHT22;7945;48.816;11.506;2023-05-25T14:31:30;24.50;67.30
15690;DHT22;7945;48.816;11.506;2023-05-25T14:33:57;24.60;67.70
15690;DHT22;7945;48.816;11.506;2023-05-25T14:36:24;24.60;67.30
15690;DHT22;7945;48.816;11.506;2023-05-25T14:38:51;24.40;66.60
15690;DHT22;7945;48.816;11.506;2023-05-25T14:41:19;24.30;66.30
15690;DHT22;7945;48.816;11.506;2023-05-25T14:43:47;24.20;66.30
15690;DHT22;7945;48.816;11.506;2023-05-25T14:46:14;24.20;66.10
15690;DHT22;7945;48.816;11.506;2023-05-25T14:48:41;24.10;66.30
15690;DHT22;7945;48.816;11.506;2023-05-25T14:51:07;24.10;67.10
15690;DHT22;7945;48.816;11.506;2023-05-25T14:53:34;24.00;67.40
15690;DHT22;7945;48.816;11.506;2023-05-25T14:56:01;24.00;67.70
15690;DHT22;7945;48.816;11.506;2023-05-25T14:58:29;24.00;67.70
15690;DHT22;7945;48.816;11.506;2023-05-25T15:00:57;24.00;67.60
15690;DHT22;7945;48.816;11.506;2023-05-25T15:03:24;24.00;67.40
15690;DHT22;7945;48.816;11.506;2023-05-25T15:05:50;24.00;66.80
15690;DHT22;7945;48.816;11.506;2023-05-25T15:08:17;24.20;67.10
15690;DHT22;7945;48.816;11.506;2023-05-25T15:10:44;24.20;67.10
15690;DHT22;7945;48.816;11.506;2023-05-25T15:13:11;24.20;67.80
15690;DHT22;7945;48.816;11.506;2023-05-25T15:15:39;24.20;67.30
15690;DHT22;7945;48.816;11.506;2023-05-25T15:18:06;24.20;66.90
15690;DHT22;7945;48.816;11.506;2023-05-25T15:20:32;24.30;66.80
15690;DHT22;7945;48.816;11.506;2023-05-25T15:22:59;24.30;66.30
15690;DHT22;7945;48.816;11.506;2023-05-25T15:25:26;24.30;66.00
15690;DHT22;7945;48.816;11.506;2023-05-25T15:27:53;24.20;66.30
15690;DHT22;7945;48.816;11.506;2023-05-25T15:30:19;24.20;66.00
15690;DHT22;7945;48.816;11.506;2023-05-25T15:32:47;24.20;66.00
15690;DHT22;7945;48.816;11.506;2023-05-25T15:35:14;24.20;65.80
15690;DHT22;7945;48.816;11.506;2023-05-25T15:37:41;24.30;66.10